createdAt,value
2017-06-20T00:00:13.248Z,24.99
2017-06-20T00:00:53.730Z,24.88
2017-06-20T00:01:34.240Z,24.9
2017-06-20T00:02:14.978Z,24.96
2017-06-20T00:02:55.423Z,24.95
2017-06-20T00:03:35.915Z,24.98
2017-06-20T00:04:16.457Z,24.87
2017-06-20T00:04:56.951Z,24.88
2017-06-20T00:05:37.450Z,24.95
2017-06-20T00:06:18.004Z,24.85
2017-06-20T00:06:58.575Z,24.93
2017-06-20T00:07:39.066Z,24.8
2017-06-20T00:08:19.577Z,24.9
2017-06-20T00:09:00.027Z,24.91
2017-06-20T00:09:40.563Z,24.85
2017-06-20T00:10:21.038Z,24.87
2017-06-20T00:11:01.617Z,24.88
2017-06-20T00:11:42.081Z,24.87
2017-06-20T00:12:22.581Z,24.81
2017-06-20T00:13:03.080Z,24.87
2017-06-20T00:13:43.593Z,24.87
2017-06-20T00:14:24.277Z,24.85
2017-06-20T00:15:04.759Z,24.88
2017-06-20T00:15:45.245Z,24.78
2017-06-20T00:16:25.754Z,24.76
2017-06-20T00:17:06.257Z,24.8
2017-06-20T00:17:47.360Z,24.81
2017-06-20T00:18:27.856Z,24.84
2017-06-20T00:19:08.340Z,24.78
2017-06-20T00:19:48.799Z,24.8
2017-06-20T00:20:29.342Z,24.88
2017-06-20T00:21:09.813Z,24.78
2017-06-20T00:21:50.314Z,24.81
2017-06-20T00:22:30.812Z,24.69
2017-06-20T00:23:11.358Z,24.8
2017-06-20T00:23:51.888Z,24.71
2017-06-20T00:24:32.409Z,24.77
2017-06-20T00:25:12.959Z,24.8
2017-06-20T00:25:53.470Z,24.77
2017-06-20T00:26:34.006Z,24.69
2017-06-20T00:27:14.491Z,24.68
2017-06-20T00:27:54.959Z,24.62
2017-06-20T00:28:35.672Z,24.71
2017-06-20T00:29:16.184Z,24.71
2017-06-20T00:29:56.616Z,24.64
2017-06-20T00:30:37.221Z,24.65
2017-06-20T00:31:17.684Z,24.49
2017-06-20T00:31:58.148Z,24.58
2017-06-20T00:32:38.698Z,24.53
2017-06-20T00:33:19.339Z,24.57
2017-06-20T00:33:59.849Z,24.53
2017-06-20T00:34:40.314Z,24.53
2017-06-20T00:35:21.019Z,24.46
2017-06-20T00:36:01.556Z,24.52
2017-06-20T00:36:42.093Z,24.47
2017-06-20T00:37:22.622Z,24.57
2017-06-20T00:38:03.100Z,24.55
2017-06-20T00:38:43.734Z,24.55
2017-06-20T00:39:24.204Z,24.57
2017-06-20T00:40:04.702Z,24.57
2017-06-20T00:40:45.223Z,24.47
2017-06-20T00:41:25.713Z,24.53
2017-06-20T00:42:06.256Z,24.53
2017-06-20T00:42:46.917Z,24.52
2017-06-20T00:43:27.412Z,24.52
2017-06-20T00:44:07.973Z,24.5
2017-06-20T00:44:48.431Z,24.6
2017-06-20T00:45:28.931Z,24.57
2017-06-20T00:46:09.423Z,24.53
2017-06-20T00:46:49.918Z,24.47
2017-06-20T00:47:31.164Z,24.47
2017-06-20T00:48:11.839Z,24.55
2017-06-20T00:48:52.400Z,24.57
2017-06-20T00:49:32.926Z,24.5
2017-06-20T00:50:13.417Z,24.49
2017-06-20T00:50:53.938Z,24.47
2017-06-20T00:51:34.397Z,24.43
2017-06-20T00:52:14.919Z,24.39
2017-06-20T00:52:55.394Z,24.31
2017-06-20T00:53:35.907Z,24.34
2017-06-20T00:54:16.430Z,24.3
2017-06-20T00:54:56.889Z,24.34
2017-06-20T00:55:37.459Z,24.31
2017-06-20T00:56:18.040Z,24.35
2017-06-20T00:56:58.596Z,24.28
2017-06-20T00:57:39.094Z,24.39
2017-06-20T00:58:19.618Z,24.39
2017-06-20T00:59:00.084Z,24.43
2017-06-20T00:59:40.618Z,24.39
2017-06-20T01:00:21.105Z,24.34
2017-06-20T01:01:01.609Z,24.3
2017-06-20T01:01:42.097Z,24.34
2017-06-20T01:02:22.782Z,24.34
2017-06-20T01:03:03.308Z,24.31
2017-06-20T01:03:43.895Z,24.31
2017-06-20T01:04:24.427Z,24.24
2017-06-20T01:05:04.927Z,24.3
2017-06-20T01:05:45.384Z,24.25
2017-06-20T01:06:25.887Z,24.22
2017-06-20T01:07:06.353Z,24.28
2017-06-20T01:07:46.825Z,24.27
2017-06-20T01:08:27.344Z,24.28
2017-06-20T01:09:11.686Z,24.34
2017-06-20T01:09:57.208Z,24.28
2017-06-20T01:10:37.704Z,24.28
2017-06-20T01:11:18.304Z,24.32
2017-06-20T01:11:58.894Z,24.27
2017-06-20T01:12:39.353Z,24.34
2017-06-20T01:13:19.827Z,24.3
2017-06-20T01:14:00.344Z,24.31
2017-06-20T01:14:40.827Z,24.28
2017-06-20T01:15:21.370Z,24.24
2017-06-20T01:16:01.829Z,24.27
2017-06-20T01:16:42.341Z,24.3
2017-06-20T01:17:22.884Z,24.31
2017-06-20T01:18:03.419Z,24.24
2017-06-20T01:18:43.908Z,24.25
2017-06-20T01:19:24.396Z,24.32
2017-06-20T01:20:04.901Z,24.28
2017-06-20T01:20:45.651Z,24.28
2017-06-20T01:21:26.175Z,24.27
2017-06-20T01:22:06.657Z,24.28
2017-06-20T01:22:47.186Z,24.27
2017-06-20T01:23:27.636Z,24.24
2017-06-20T01:24:08.187Z,24.27
2017-06-20T01:24:48.649Z,24.21
2017-06-20T01:25:29.163Z,24.22
2017-06-20T01:26:09.748Z,24.24
2017-06-20T01:26:50.220Z,24.22
2017-06-20T01:27:30.718Z,24.2
2017-06-20T01:28:11.212Z,24.18
2017-06-20T01:28:51.740Z,24.15
2017-06-20T01:29:32.235Z,24.15
2017-06-20T01:30:12.778Z,24.16
2017-06-20T01:30:53.256Z,24.09
2017-06-20T01:31:33.758Z,24.08
2017-06-20T01:32:14.242Z,24.06
2017-06-20T01:32:54.943Z,23.94
2017-06-20T01:33:35.321Z,24.02
2017-06-20T01:34:15.855Z,24.09
2017-06-20T01:34:56.300Z,24.08
2017-06-20T01:35:36.806Z,24.1
2017-06-20T01:36:17.323Z,24.1
2017-06-20T01:36:57.798Z,24.09
2017-06-20T01:37:38.331Z,24.08
2017-06-20T01:38:18.871Z,24.13
2017-06-20T01:38:59.327Z,24.1
2017-06-20T01:39:39.838Z,24.13
2017-06-20T01:40:20.343Z,24.13
2017-06-20T01:41:00.868Z,24.1
2017-06-20T01:41:41.459Z,24.05
2017-06-20T01:42:21.953Z,24.1
2017-06-20T01:43:02.447Z,24.12
2017-06-20T01:43:42.916Z,24.08
2017-06-20T01:44:23.416Z,24.02
2017-06-20T01:45:03.890Z,24.05
2017-06-20T01:45:44.444Z,24.05
2017-06-20T01:46:24.949Z,24.05
2017-06-20T01:47:05.422Z,24.06
2017-06-20T01:47:45.929Z,24.09
2017-06-20T01:48:26.461Z,23.97
2017-06-20T01:49:06.967Z,23.93
2017-06-20T01:49:47.428Z,24.05
2017-06-20T01:50:28.097Z,24.03
2017-06-20T01:51:08.590Z,24.08
2017-06-20T01:51:49.064Z,24.09
2017-06-20T01:52:29.556Z,24.05
2017-06-20T01:53:10.066Z,23.97
2017-06-20T01:53:50.646Z,24.03
2017-06-20T01:54:31.131Z,23.98
2017-06-20T01:55:11.713Z,24.06
2017-06-20T01:55:52.215Z,24
2017-06-20T01:56:32.724Z,23.95
2017-06-20T01:57:13.204Z,23.85
2017-06-20T01:57:53.702Z,23.85
2017-06-20T01:58:34.173Z,24
2017-06-20T01:59:14.716Z,23.95
2017-06-20T01:59:55.245Z,23.98
2017-06-20T02:00:35.753Z,23.98
2017-06-20T02:01:16.355Z,24.02
2017-06-20T02:01:56.850Z,24
2017-06-20T02:02:37.274Z,23.91
2017-06-20T02:03:17.808Z,23.95
2017-06-20T02:03:58.289Z,23.95
2017-06-20T02:04:38.835Z,23.88
2017-06-20T02:05:19.315Z,23.95
2017-06-20T02:05:59.810Z,23.85
2017-06-20T02:06:40.316Z,23.85
2017-06-20T02:07:20.801Z,23.93
2017-06-20T02:08:01.266Z,23.93
2017-06-20T02:08:41.742Z,23.84
2017-06-20T02:09:22.265Z,23.73
2017-06-20T02:10:02.777Z,23.83
2017-06-20T02:10:43.277Z,23.8
2017-06-20T02:11:23.745Z,23.87
2017-06-20T02:12:04.344Z,23.85
2017-06-20T02:12:44.858Z,23.87
2017-06-20T02:13:25.362Z,23.83
2017-06-20T02:14:05.895Z,23.87
2017-06-20T02:14:46.389Z,23.8
2017-06-20T02:15:26.874Z,23.79
2017-06-20T02:16:07.381Z,23.85
2017-06-20T02:16:47.861Z,23.75
2017-06-20T02:17:28.344Z,23.85
2017-06-20T02:18:08.831Z,23.85
2017-06-20T02:18:49.362Z,23.87
2017-06-20T02:19:29.906Z,23.87
2017-06-20T02:20:10.441Z,23.91
2017-06-20T02:20:50.922Z,23.84
2017-06-20T02:21:31.437Z,23.79
2017-06-20T02:22:11.902Z,23.69
2017-06-20T02:22:52.386Z,23.8
2017-06-20T02:23:32.922Z,23.69
2017-06-20T02:24:13.366Z,23.72
2017-06-20T02:24:54.065Z,23.72
2017-06-20T02:25:34.574Z,23.72
2017-06-20T02:26:15.133Z,23.76
2017-06-20T02:26:55.590Z,23.76
2017-06-20T02:27:36.100Z,23.72
2017-06-20T02:28:16.599Z,23.72
2017-06-20T02:28:57.127Z,23.72
2017-06-20T02:29:37.643Z,23.72
2017-06-20T02:30:18.127Z,23.7
2017-06-20T02:30:58.636Z,23.73
2017-06-20T02:31:39.191Z,23.7
2017-06-20T02:32:19.679Z,23.78
2017-06-20T02:33:00.183Z,23.75
2017-06-20T02:33:40.678Z,23.7
2017-06-20T02:34:21.205Z,23.7
2017-06-20T02:35:01.666Z,23.73
2017-06-20T02:35:42.165Z,23.73
2017-06-20T02:36:22.678Z,23.69
2017-06-20T02:37:03.162Z,23.78
2017-06-20T02:37:43.653Z,23.7
2017-06-20T02:38:24.140Z,23.68
2017-06-20T02:39:04.678Z,23.5
2017-06-20T02:39:45.155Z,23.73
2017-06-20T02:40:25.646Z,23.6
2017-06-20T02:41:06.128Z,23.65
2017-06-20T02:41:46.639Z,23.68
2017-06-20T02:42:27.116Z,23.72
2017-06-20T02:43:07.624Z,23.54
2017-06-20T02:43:48.133Z,23.57
2017-06-20T02:44:28.666Z,23.58
2017-06-20T02:45:09.139Z,23.61
2017-06-20T02:45:49.618Z,23.72
2017-06-20T02:46:30.272Z,23.73
2017-06-20T02:47:10.809Z,23.75
2017-06-20T02:47:51.313Z,23.72
2017-06-20T02:48:31.852Z,23.6
2017-06-20T02:49:12.378Z,23.57
2017-06-20T02:49:52.927Z,23.5
2017-06-20T02:50:33.430Z,23.5
2017-06-20T02:51:13.989Z,23.48
2017-06-20T02:51:54.536Z,23.48
2017-06-20T02:52:35.010Z,23.46
2017-06-20T02:53:15.496Z,23.39
2017-06-20T02:53:56.004Z,23.43
2017-06-20T02:54:36.516Z,23.46
2017-06-20T02:55:17.606Z,23.46
2017-06-20T02:55:58.138Z,23.53
2017-06-20T02:56:38.612Z,23.46
2017-06-20T02:57:19.146Z,23.54
2017-06-20T02:57:59.780Z,23.6
2017-06-20T02:58:40.244Z,23.57
2017-06-20T02:59:20.728Z,23.61
2017-06-20T03:00:01.244Z,23.53
2017-06-20T03:00:41.746Z,23.47
2017-06-20T03:01:22.305Z,23.43
2017-06-20T03:02:02.779Z,23.48
2017-06-20T03:02:43.353Z,23.43
2017-06-20T03:03:23.802Z,23.38
2017-06-20T03:04:04.280Z,23.51
2017-06-20T03:04:44.820Z,23.4
2017-06-20T03:05:25.341Z,23.46
2017-06-20T03:06:05.838Z,23.55
2017-06-20T03:06:46.366Z,23.63
2017-06-20T03:07:26.829Z,23.55
2017-06-20T03:08:08.039Z,23.4
2017-06-20T03:08:48.610Z,23.51
2017-06-20T03:09:29.109Z,23.43
2017-06-20T03:10:09.550Z,23.43
2017-06-20T03:10:50.060Z,23.35
2017-06-20T03:11:30.681Z,23.43
2017-06-20T03:12:11.100Z,23.38
2017-06-20T03:12:51.647Z,23.4
2017-06-20T03:13:32.302Z,23.4
2017-06-20T03:14:12.817Z,23.38
2017-06-20T03:14:53.325Z,23.38
2017-06-20T03:15:33.793Z,23.43
2017-06-20T03:16:14.310Z,23.36
2017-06-20T03:16:54.826Z,23.38
2017-06-20T03:17:35.316Z,23.38
2017-06-20T03:18:15.789Z,23.35
2017-06-20T03:18:56.304Z,23.36
2017-06-20T03:19:36.806Z,23.32
2017-06-20T03:20:17.403Z,23.38
2017-06-20T03:20:57.910Z,23.35
2017-06-20T03:21:38.493Z,23.4
2017-06-20T03:22:18.951Z,23.4
2017-06-20T03:22:59.461Z,23.46
2017-06-20T03:23:39.993Z,23.47
2017-06-20T03:24:20.517Z,23.53
2017-06-20T03:25:01.050Z,23.5
2017-06-20T03:25:41.594Z,23.42
2017-06-20T03:26:22.060Z,23.53
2017-06-20T03:27:02.608Z,23.42
2017-06-20T03:27:43.098Z,23.53
2017-06-20T03:28:23.710Z,23.51
2017-06-20T03:29:04.170Z,23.42
2017-06-20T03:29:44.731Z,23.39
2017-06-20T03:30:25.248Z,23.4
2017-06-20T03:31:05.755Z,23.43
2017-06-20T03:31:46.253Z,23.38
2017-06-20T03:32:26.747Z,23.35
2017-06-20T03:34:15.070Z,23.4
2017-06-20T03:34:55.435Z,23.42
2017-06-20T03:35:35.942Z,23.36
2017-06-20T03:36:16.438Z,23.31
2017-06-20T03:36:56.940Z,23.28
2017-06-20T03:37:37.509Z,23.23
2017-06-20T03:38:18.015Z,23.17
2017-06-20T03:38:58.477Z,23.25
2017-06-20T03:39:38.982Z,23.2
2017-06-20T03:40:19.527Z,23.23
2017-06-20T03:41:00.025Z,23.32
2017-06-20T03:41:40.530Z,23.33
2017-06-20T03:42:21.047Z,23.35
2017-06-20T03:43:01.494Z,23.33
2017-06-20T03:43:41.991Z,23.33
2017-06-20T03:44:22.499Z,23.35
2017-06-20T03:45:03.021Z,23.36
2017-06-20T03:45:43.521Z,23.28
2017-06-20T03:46:24.003Z,23.28
2017-06-20T03:47:04.944Z,23.27
2017-06-20T03:47:44.994Z,23.38
2017-06-20T03:48:25.520Z,23.31
2017-06-20T03:49:05.973Z,23.35
2017-06-20T03:49:46.430Z,23.23
2017-06-20T03:50:26.952Z,23.27
2017-06-20T03:51:07.430Z,23.22
2017-06-20T03:51:47.923Z,23.23
2017-06-20T03:52:28.414Z,23.28
2017-06-20T03:53:08.930Z,23.28
2017-06-20T03:53:49.414Z,23.43
2017-06-20T03:54:29.960Z,23.36
2017-06-20T03:55:10.366Z,23.38
2017-06-20T03:55:50.978Z,23.47
2017-06-20T03:56:31.502Z,23.4
2017-06-20T03:57:11.951Z,23.46
2017-06-20T03:57:52.472Z,23.47
2017-06-20T03:58:33.034Z,23.54
2017-06-20T03:59:13.530Z,23.57
2017-06-20T03:59:54.019Z,23.58
2017-06-20T04:00:34.525Z,23.58
2017-06-20T04:01:14.996Z,23.46
2017-06-20T04:01:55.501Z,23.57
2017-06-20T04:02:36.025Z,23.58
2017-06-20T04:03:16.564Z,23.55
2017-06-20T04:03:57.049Z,23.6
2017-06-20T04:04:37.528Z,23.73
2017-06-20T04:05:18.102Z,23.63
2017-06-20T04:05:58.595Z,23.7
2017-06-20T04:06:39.064Z,23.72
2017-06-20T04:07:19.590Z,23.68
2017-06-20T04:08:00.079Z,23.7
2017-06-20T04:08:40.558Z,23.7
2017-06-20T04:09:21.052Z,23.73
2017-06-20T04:10:01.588Z,23.7
2017-06-20T04:10:42.347Z,23.7
2017-06-20T04:11:22.846Z,23.73
2017-06-20T04:12:03.361Z,23.72
2017-06-20T04:12:43.854Z,23.76
2017-06-20T04:13:24.351Z,23.79
2017-06-20T04:14:04.862Z,23.8
2017-06-20T04:14:45.333Z,23.85
2017-06-20T04:15:25.891Z,23.83
2017-06-20T04:16:06.421Z,23.85
2017-06-20T04:16:46.968Z,23.91
2017-06-20T04:17:27.516Z,23.9
2017-06-20T04:18:07.996Z,23.95
2017-06-20T04:18:48.475Z,24.05
2017-06-20T04:19:29.022Z,24.06
2017-06-20T04:20:09.550Z,24.05
2017-06-20T04:20:50.030Z,24.13
2017-06-20T04:21:30.539Z,24.08
2017-06-20T04:22:11.264Z,24.1
2017-06-20T04:24:24.899Z,24.21
2017-06-20T04:25:05.175Z,24.3
2017-06-20T04:25:45.712Z,24.39
2017-06-20T04:26:26.265Z,24.35
2017-06-20T04:27:06.758Z,24.45
2017-06-20T04:27:47.372Z,24.49
2017-06-20T04:28:27.993Z,24.58
2017-06-20T04:29:08.554Z,24.67
2017-06-20T04:29:49.070Z,24.73
2017-06-20T04:30:29.521Z,24.78
2017-06-20T04:31:10.038Z,24.83
2017-06-20T04:31:50.561Z,24.83
2017-06-20T04:32:32.056Z,24.81
2017-06-20T04:33:12.597Z,24.9
2017-06-20T04:33:53.075Z,24.91
2017-06-20T04:34:33.811Z,24.93
2017-06-20T04:35:14.336Z,25.06
2017-06-20T04:35:54.796Z,25.15
2017-06-20T04:36:35.260Z,25.17
2017-06-20T04:37:15.775Z,25.17
2017-06-20T04:37:56.239Z,25.17
2017-06-20T04:38:36.755Z,25.09
2017-06-20T04:39:17.404Z,25.09
2017-06-20T04:39:57.849Z,25.13
2017-06-20T04:40:38.400Z,25.23
2017-06-20T04:41:18.924Z,25.17
2017-06-20T04:41:59.777Z,25.2
2017-06-20T04:42:40.418Z,25.27
2017-06-20T04:43:20.902Z,25.28
2017-06-20T04:44:01.500Z,25.36
2017-06-20T04:44:42.002Z,25.7
2017-06-20T04:45:22.510Z,25.64
2017-06-20T04:46:03.091Z,25.45
2017-06-20T04:46:43.549Z,25.39
2017-06-20T04:47:24.068Z,25.35
2017-06-20T04:48:04.578Z,25.36
2017-06-20T04:48:45.130Z,25.3
2017-06-20T04:49:25.613Z,25.21
2017-06-20T04:50:06.087Z,25.09
2017-06-20T04:50:46.603Z,25.1
2017-06-20T04:51:27.128Z,25
2017-06-20T04:52:08.454Z,25
2017-06-20T04:52:48.920Z,25.1
2017-06-20T04:53:29.460Z,24.98
2017-06-20T04:54:09.950Z,24.91
2017-06-20T04:54:50.447Z,24.88
2017-06-20T04:55:31.026Z,24.91
2017-06-20T04:56:11.510Z,24.9
2017-06-20T04:56:51.990Z,25
2017-06-20T04:57:33.207Z,25.09
2017-06-20T04:58:13.577Z,25.13
2017-06-20T04:58:57.353Z,25.05
2017-06-20T04:59:39.351Z,25.03
2017-06-20T05:03:27.878Z,25.1
2017-06-20T05:04:09.416Z,25.05
2017-06-20T05:04:52.381Z,25.09
2017-06-20T05:05:34.286Z,25.09
2017-06-20T05:06:14.966Z,25.09
2017-06-20T05:06:58.055Z,25.1
2017-06-20T05:11:16.509Z,25.25
2017-06-20T05:11:57.818Z,25.23
2017-06-20T05:19:28.584Z,25.58
2017-06-20T05:20:12.107Z,25.67
2017-06-20T05:20:52.689Z,25.47
2017-06-20T05:21:33.123Z,25.39
2017-06-20T05:22:13.640Z,25.46
2017-06-20T05:24:11.754Z,25.39
2017-06-20T05:24:52.402Z,25.38
2017-06-20T05:25:32.924Z,25.43
2017-06-20T05:26:13.555Z,25.47
2017-06-20T05:26:54.168Z,25.7
2017-06-20T05:27:34.715Z,25.91
2017-06-20T05:28:15.315Z,26.43
2017-06-20T05:28:55.719Z,26.85
2017-06-20T05:29:36.243Z,26.85
2017-06-20T05:30:16.773Z,26.58
2017-06-20T05:30:57.274Z,26.5
2017-06-20T05:31:37.818Z,26.45
2017-06-20T05:32:18.337Z,26.37
2017-06-20T05:32:58.901Z,26.35
2017-06-20T05:33:39.387Z,26.4
2017-06-20T05:34:19.894Z,26.51
2017-06-20T05:35:00.405Z,26.57
2017-06-20T05:35:40.903Z,26.52
2017-06-20T05:36:21.520Z,26.5
2017-06-20T05:37:02.070Z,26.39
2017-06-20T05:37:42.598Z,26.43
2017-06-20T05:38:23.179Z,26.4
2017-06-20T05:39:03.647Z,26.43
2017-06-20T05:39:44.177Z,26.36
2017-06-20T05:40:24.632Z,26.26
2017-06-20T05:41:05.158Z,26.18
2017-06-20T05:41:45.698Z,26.15
2017-06-20T05:42:26.175Z,26.15
2017-06-20T05:43:06.719Z,26.17
2017-06-20T05:43:47.263Z,26.1
2017-06-20T05:44:27.818Z,26.36
2017-06-20T05:45:08.284Z,26.35
2017-06-20T05:45:48.813Z,26.35
2017-06-20T05:46:29.322Z,26.35
2017-06-20T05:47:09.813Z,26.3
2017-06-20T05:47:50.315Z,26.32
2017-06-20T05:48:30.795Z,26.37
2017-06-20T05:49:11.292Z,26.26
2017-06-20T05:49:51.831Z,26.43
2017-06-20T05:50:32.355Z,26.33
2017-06-20T05:51:12.808Z,26.36
2017-06-20T05:51:53.297Z,26.3
2017-06-20T05:52:33.798Z,26.36
2017-06-20T05:53:14.313Z,26.5
2017-06-20T05:53:54.833Z,26.51
2017-06-20T05:54:35.635Z,26.58
2017-06-20T05:55:16.221Z,26.73
2017-06-20T05:55:56.499Z,26.8
2017-06-20T05:56:36.998Z,27.24
2017-06-20T05:57:17.489Z,27.96
2017-06-20T05:57:58.014Z,28.86
2017-06-20T05:58:38.507Z,29.67
2017-06-20T05:59:19.056Z,30.51
2017-06-20T05:59:59.563Z,31.21
2017-06-20T06:00:40.033Z,31.66
2017-06-20T06:02:17.996Z,32.51
2017-06-20T06:02:58.411Z,32.45
2017-06-20T06:03:38.913Z,32.57
2017-06-20T06:04:19.423Z,32.21
2017-06-20T06:04:59.956Z,31.8
2017-06-20T06:05:40.424Z,31.61
2017-06-20T06:06:20.986Z,31.16
2017-06-20T06:07:01.412Z,30.75
2017-06-20T06:07:41.940Z,30.43
2017-06-20T06:08:22.465Z,30.34
2017-06-20T06:09:02.950Z,30.16
2017-06-20T06:09:43.519Z,30
2017-06-20T06:10:24.015Z,29.86
2017-06-20T06:11:04.443Z,30
2017-06-20T06:11:44.971Z,29.94
2017-06-20T06:12:25.473Z,29.97
2017-06-20T06:13:06.022Z,29.94
2017-06-20T06:13:46.534Z,30
2017-06-20T06:14:26.930Z,30.11
2017-06-20T06:15:07.462Z,30
2017-06-20T06:15:47.960Z,30.01
2017-06-20T06:16:28.511Z,29.98
2017-06-20T06:17:09.004Z,29.86
2017-06-20T06:17:49.444Z,29.74
2017-06-20T06:18:29.965Z,29.67
2017-06-20T06:19:10.456Z,29.68
2017-06-20T06:19:51.035Z,29.7
2017-06-20T06:20:31.541Z,29.89
2017-06-20T06:21:12.005Z,30.17
2017-06-20T06:21:52.543Z,30.32
2017-06-20T06:22:33.110Z,30.37
2017-06-20T06:23:13.560Z,30.37
2017-06-20T06:23:54.135Z,30.43
2017-06-20T06:24:34.654Z,30.43
2017-06-20T06:25:15.129Z,30.65
2017-06-20T06:25:55.602Z,30.67
2017-06-20T06:26:36.156Z,30.75
2017-06-20T06:27:16.680Z,30.8
2017-06-20T06:27:57.146Z,30.62
2017-06-20T06:28:37.656Z,30.69
2017-06-20T06:29:18.150Z,30.79
2017-06-20T06:29:58.661Z,30.94
2017-06-20T06:30:39.240Z,30.95
2017-06-20T06:31:19.658Z,30.88
2017-06-20T06:32:00.185Z,30.8
2017-06-20T06:32:40.669Z,30.72
2017-06-20T06:33:21.175Z,30.79
2017-06-20T06:34:01.782Z,30.73
2017-06-20T06:34:42.253Z,30.62
2017-06-20T06:35:22.755Z,30.57
2017-06-20T06:36:03.312Z,30.53
2017-06-20T06:36:43.754Z,30.7
2017-06-20T06:37:24.252Z,30.77
2017-06-20T06:38:04.752Z,30.92
2017-06-20T06:38:45.302Z,30.86
2017-06-20T06:39:25.822Z,30.88
2017-06-20T06:40:06.315Z,30.76
2017-06-20T06:40:46.813Z,30.54
2017-06-20T06:41:27.317Z,30.67
2017-06-20T06:42:07.854Z,30.73
2017-06-20T06:42:48.385Z,30.76
2017-06-20T06:43:28.901Z,30.77
2017-06-20T06:44:09.434Z,30.62
2017-06-20T06:44:50.087Z,30.43
2017-06-20T06:45:30.587Z,30.34
2017-06-20T06:46:11.092Z,30.45
2017-06-20T06:46:51.772Z,30.51
2017-06-20T06:47:32.123Z,30.37
2017-06-20T06:48:12.615Z,30.32
2017-06-20T06:48:53.112Z,30.35
2017-06-20T06:49:33.629Z,30.37
2017-06-20T06:50:14.128Z,30.31
2017-06-20T06:50:54.617Z,30.32
2017-06-20T06:51:35.197Z,30.27
2017-06-20T06:52:15.633Z,30.16
2017-06-20T06:52:56.112Z,30.19
2017-06-20T06:53:36.639Z,30.19
2017-06-20T06:54:17.101Z,30.08
2017-06-20T06:54:57.599Z,30.17
2017-06-20T06:55:38.135Z,30.19
2017-06-20T06:56:18.675Z,30.19
2017-06-20T06:56:59.176Z,30.39
2017-06-20T06:57:39.681Z,30.46
2017-06-20T06:58:20.155Z,30.49
2017-06-20T06:59:00.672Z,30.46
2017-06-20T06:59:41.239Z,30.29
2017-06-20T07:00:21.723Z,30.17
2017-06-20T07:01:02.286Z,30.23
2017-06-20T07:01:42.749Z,30.2
2017-06-20T07:02:23.256Z,30.08
2017-06-20T07:03:03.754Z,30.05
2017-06-20T07:03:44.266Z,30.08
2017-06-20T07:04:24.786Z,30.13
2017-06-20T07:05:05.296Z,30.23
2017-06-20T07:05:45.790Z,30.29
2017-06-20T07:06:26.319Z,30.27
2017-06-20T07:07:06.888Z,30.31
2017-06-20T07:07:47.346Z,30.19
2017-06-20T07:08:27.854Z,30.29
2017-06-20T07:09:08.355Z,30.45
2017-06-20T07:09:48.946Z,30.51
2017-06-20T07:10:29.404Z,30.61
2017-06-20T07:11:09.921Z,30.62
2017-06-20T07:11:50.398Z,30.55
2017-06-20T07:12:30.921Z,30.53
2017-06-20T07:13:11.445Z,30.39
2017-06-20T07:13:52.005Z,30.37
2017-06-20T07:14:32.474Z,30.54
2017-06-20T07:15:12.950Z,30.47
2017-06-20T07:15:53.479Z,30.37
2017-06-20T07:16:33.982Z,30.39
2017-06-20T07:17:14.537Z,30.35
2017-06-20T07:17:54.999Z,30.57
2017-06-20T07:18:35.588Z,30.67
2017-06-20T07:19:16.102Z,30.72
2017-06-20T07:19:56.610Z,30.77
2017-06-20T07:20:37.661Z,31.06
2017-06-20T07:21:18.476Z,31.1
2017-06-20T07:21:58.947Z,31.29
2017-06-20T07:22:39.415Z,31.39
2017-06-20T07:23:19.913Z,31.53
2017-06-20T07:24:00.402Z,31.53
2017-06-20T07:24:40.889Z,31.66
2017-06-20T07:25:22.240Z,31.53
2017-06-20T07:26:03.493Z,31.58
2017-06-20T07:26:43.985Z,31.57
2017-06-20T07:27:24.479Z,31.58
2017-06-20T07:28:04.981Z,31.63
2017-06-20T07:28:45.520Z,31.75
2017-06-20T07:29:26.021Z,31.8
2017-06-20T07:30:06.471Z,31.66
2017-06-20T07:30:47.000Z,31.68
2017-06-20T07:31:27.518Z,31.69
2017-06-20T07:32:07.997Z,31.81
2017-06-20T07:32:48.560Z,31.86
2017-06-20T07:33:29.025Z,31.89
2017-06-20T07:34:09.501Z,31.8
2017-06-20T07:34:50.062Z,32
2017-06-20T07:35:30.526Z,32
2017-06-20T07:36:11.022Z,32.01
2017-06-20T07:36:51.571Z,31.99
2017-06-20T07:37:32.069Z,32.07
2017-06-20T07:38:12.570Z,31.88
2017-06-20T07:38:53.070Z,32.03
2017-06-20T07:39:33.639Z,32.07
2017-06-20T07:40:14.111Z,31.78
2017-06-20T07:40:54.584Z,31.66
2017-06-20T07:41:35.112Z,31.5
2017-06-20T07:42:15.616Z,31.46
2017-06-20T07:42:56.131Z,31.57
2017-06-20T07:43:36.665Z,31.48
2017-06-20T07:44:17.150Z,31.5
2017-06-20T07:44:57.679Z,31.19
2017-06-20T07:45:38.136Z,31.06
2017-06-20T07:47:16.014Z,30.88
2017-06-20T07:47:56.522Z,30.86
2017-06-20T07:48:37.103Z,30.92
2017-06-20T07:49:17.663Z,30.83
2017-06-20T07:49:58.199Z,30.82
2017-06-20T07:50:38.703Z,30.97
2017-06-20T07:51:19.222Z,31.23
2017-06-20T07:51:59.721Z,31.2
2017-06-20T07:52:40.228Z,31.25
2017-06-20T07:53:20.752Z,31.34
2017-06-20T07:54:01.274Z,31.41
2017-06-20T07:54:41.787Z,31.48
2017-06-20T07:55:22.343Z,31.57
2017-06-20T07:56:02.835Z,31.61
2017-06-20T07:56:43.317Z,31.7
2017-06-20T07:57:23.820Z,31.62
2017-06-20T07:58:04.369Z,31.62
2017-06-20T07:58:44.835Z,31.57
2017-06-20T07:59:25.362Z,31.35
2017-06-20T08:00:05.957Z,31.32
2017-06-20T08:00:46.551Z,31.38
2017-06-20T08:01:27.014Z,31.38
2017-06-20T08:02:07.559Z,31.5
2017-06-20T08:02:48.060Z,31.5
2017-06-20T08:03:28.591Z,31.56
2017-06-20T08:04:09.086Z,31.58
2017-06-20T08:04:49.611Z,31.66
2017-06-20T08:05:30.124Z,31.63
2017-06-20T08:06:10.602Z,31.46
2017-06-20T08:06:51.139Z,31.2
2017-06-20T08:07:31.637Z,31.28
2017-06-20T08:08:12.113Z,31.32
2017-06-20T08:08:52.628Z,31.34
2017-06-20T08:09:33.114Z,31.43
2017-06-20T08:10:13.645Z,31.53
2017-06-20T08:10:54.132Z,31.65
2017-06-20T08:11:34.612Z,31.66
2017-06-20T08:12:15.176Z,31.78
2017-06-20T08:12:55.676Z,31.7
2017-06-20T08:13:36.165Z,31.63
2017-06-20T08:14:16.699Z,31.65
2017-06-20T08:14:57.208Z,31.58
2017-06-20T08:15:37.797Z,31.63
2017-06-20T08:16:18.269Z,31.69
2017-06-20T08:16:58.782Z,31.69
2017-06-20T08:17:39.341Z,31.61
2017-06-20T08:18:19.824Z,31.62
2017-06-20T08:19:00.317Z,31.68
2017-06-20T08:19:40.819Z,31.65
2017-06-20T08:20:21.374Z,31.65
2017-06-20T08:21:01.860Z,31.61
2017-06-20T08:21:42.379Z,31.58
2017-06-20T08:22:22.873Z,31.57
2017-06-20T08:23:03.430Z,31.56
2017-06-20T08:23:43.918Z,31.61
2017-06-20T08:24:24.443Z,31.61
2017-06-20T08:25:04.982Z,31.54
2017-06-20T08:25:45.427Z,31.62
2017-06-20T08:26:25.949Z,31.78
2017-06-20T08:27:06.466Z,31.62
2017-06-20T08:27:46.972Z,31.57
2017-06-20T08:28:27.452Z,31.69
2017-06-20T08:29:07.937Z,31.63
2017-06-20T08:29:48.472Z,31.57
2017-06-20T08:30:29.032Z,31.53
2017-06-20T08:31:09.571Z,31.48
2017-06-20T08:31:50.040Z,31.43
2017-06-20T08:32:30.508Z,31.46
2017-06-20T08:33:11.029Z,31.36
2017-06-20T08:33:51.530Z,31.28
2017-06-20T08:34:32.037Z,31.23
2017-06-20T08:35:12.569Z,31.21
2017-06-20T08:35:53.086Z,31.17
2017-06-20T08:36:33.576Z,31.13
2017-06-20T08:37:14.129Z,31.04
2017-06-20T08:37:54.635Z,31.04
2017-06-20T08:38:35.133Z,30.98
2017-06-20T08:39:15.685Z,30.97
2017-06-20T08:39:56.170Z,30.99
2017-06-20T08:40:36.634Z,31.02
2017-06-20T08:41:17.150Z,31.04
2017-06-20T08:41:57.671Z,31.01
2017-06-20T08:42:38.172Z,30.94
2017-06-20T08:43:18.669Z,31.09
2017-06-20T08:43:59.185Z,30.99
2017-06-20T08:44:39.666Z,30.88
2017-06-20T08:45:20.225Z,30.84
2017-06-20T08:46:00.716Z,30.94
2017-06-20T08:46:41.210Z,31.01
2017-06-20T08:47:21.710Z,31.02
2017-06-20T08:48:02.212Z,30.99
2017-06-20T08:48:42.727Z,30.88
2017-06-20T08:49:23.265Z,30.89
2017-06-20T08:50:03.803Z,30.99
2017-06-20T08:50:44.310Z,31.04
2017-06-20T08:51:24.814Z,31.2
2017-06-20T08:52:05.318Z,31.17
2017-06-20T08:52:45.829Z,31.2
2017-06-20T08:53:26.365Z,31.2
2017-06-20T08:54:06.879Z,31.2
2017-06-20T08:54:47.375Z,31.17
2017-06-20T08:55:27.912Z,31.1
2017-06-20T08:56:08.433Z,30.98
2017-06-20T08:56:48.932Z,30.95
2017-06-20T08:57:29.426Z,30.8
2017-06-20T08:58:09.990Z,30.82
2017-06-20T08:58:50.490Z,30.88
2017-06-20T08:59:30.998Z,30.75
2017-06-20T09:00:11.510Z,30.76
2017-06-20T09:00:51.997Z,30.82
2017-06-20T09:01:32.541Z,30.88
2017-06-20T09:02:13.015Z,30.82
2017-06-20T09:02:53.506Z,30.76
2017-06-20T09:03:33.998Z,30.84
2017-06-20T09:04:14.520Z,30.92
2017-06-20T09:04:55.091Z,31.07